Terminal Aerodrome Forecast
Issued by NWS

Home | Current Version | Previous Version | Text Only | Print | Product List | Glossary Off
Versions: 1 2 3 4 5 6 7 8 9 10 11 12 13 14 15 16 17 18 19 20 21 22 23 24 25 26 27 28 29 30 31 32 33 34 35 36

000
FTUS43 KLOT 191100
TAFORD
TAF
KORD 191120Z 1912/2018 VRB02KT P6SM SCT250
     FM191500 22008KT P6SM SCT250
     FM191800 22012KT P6SM SCT120 BKN200
      TEMPO 1919/1923 22014G20KT
     FM200600 24008KT P6SM BKN100
     FM201400 30011KT P6SM SCT035=

USA.gov is the U.S. government's official web portal to all federal, state and local government web resources and services.